Time;durP1;ratioP1;P1;durP2;ratioP2;P2;SDS_P1;SDS_P2;PMS_P1;PMS_P2;Temp;Humidity;BMP_temperature;BMP_pressure;BME280_temperature;BME280_humidity;BME280_pressure;Samples;Min_cycle;Max_cycle;Signal;HPM_P1;HPM_P2
2023/08/03 00:00:20;;;;;;;;;;;;;;;;;;4882884;29;19977;-88
2023/08/03 00:02:46;;;;;;;;;;;;;;;;;;4895885;29;19990;-88
2023/08/03 00:05:17;;;;;;;;;;;;;;;;;;4888539;29;20058;-87
2023/08/03 00:07:43;;;;;;;;;;;;;;;;;;4890965;28;20525;-88
2023/08/03 00:10:09;;;;;;;;;;;;;;;;;;4873549;29;20271;-88
2023/08/03 00:12:35;;;;;;;;;;;;;;;;;;4891445;29;19966;-87
2023/08/03 00:15:01;;;;;;;;;;;;;;;;;;4873695;29;20693;-87
2023/08/03 00:17:27;;;;;;;;;;;;;;;;;;4885232;29;19931;-87
2023/08/03 00:19:53;;;;;;;;;;;;;;;;;;4875425;29;19938;-87
2023/08/03 00:22:19;;;;;;;;;;;;;;;;;;4871011;29;21066;-88
2023/08/03 00:24:45;;;;;;;;;;;;;;;;;;4900465;29;19957;-87
2023/08/03 00:27:11;;;;;;;;;;;;;;;;;;4885028;29;19927;-88
2023/08/03 00:29:37;;;;;;;;;;;;;;;;;;4877366;29;19949;-88
2023/08/03 00:32:03;;;;;;;;;;;;;;;;;;4890478;29;20018;-88
2023/08/03 00:34:29;;;;;;;;;;;;;;;;;;4883716;29;19934;-87
2023/08/03 00:36:55;;;;;;;;;;;;;;;;;;4874347;29;20021;-88
2023/08/03 00:39:21;;;;;;;;;;;;;;;;;;4899043;29;19934;-87
2023/08/03 00:41:47;;;;;;;;;;;;;;;;;;4890691;29;19931;-87
2023/08/03 00:44:13;;;;;;;;;;;;;;;;;;4870519;29;20026;-87
2023/08/03 00:46:39;;;;;;;;;;;;;;;;;;4876693;29;20270;-87
2023/08/03 00:49:05;;;;;;;;;;;;;;;;;;4902845;29;19945;-87
2023/08/03 00:51:31;;;;;;;;;;;;;;;;;;4886371;29;19927;-87
2023/08/03 00:53:57;;;;;;;;;;;;;;;;;;4887814;29;19988;-87
2023/08/03 00:56:23;;;;;;;;;;;;;;;;;;4869960;29;19931;-87
2023/08/03 00:58:49;;;;;;;;;;;;;;;;;;4887626;29;19938;-88
2023/08/03 01:01:15;;;;;;;;;;;;;;;;;;4875032;29;20414;-87
2023/08/03 01:03:41;;;;;;;;;;;;;;;;;;4887771;29;19927;-88
2023/08/03 01:06:07;;;;;;;;;;;;;;;;;;4872543;29;20266;-87
2023/08/03 01:08:33;;;;;;;;;;;;;;;;;;4875415;29;19931;-88
2023/08/03 01:10:59;;;;;;;;;;;;;;;;;;4901483;29;19927;-88
2023/08/03 01:13:25;;;;;;;;;;;;;;;;;;4873066;29;20074;-87
2023/08/03 01:15:51;;;;;;;;;;;;;;;;;;4876039;29;19926;-88
2023/08/03 01:18:17;;;;;;;;;;;;;;;;;;4882891;29;19938;-88
2023/08/03 01:20:43;;;;;;;;;;;;;;;;;;4874606;29;20416;-87
2023/08/03 01:23:10;;;;;;;;;;;;;;;;;;4872215;29;20135;-87
2023/08/03 01:25:36;;;;;;;;;;;;;;;;;;4888722;29;20029;-87
2023/08/03 01:28:01;;;;;;;;;;;;;;;;;;4886288;29;20017;-87
2023/08/03 01:30:27;;;;;;;;;;;;;;;;;;4868471;29;21963;-87
2023/08/03 01:32:53;;;;;;;;;;;;;;;;;;4874103;29;21052;-88
2023/08/03 01:35:19;;;;;;;;;;;;;;;;;;4897273;29;19934;-87
2023/08/03 01:37:45;;;;;;;;;;;;;;;;;;4876046;29;19927;-88
2023/08/03 01:40:11;;;;;;;;;;;;;;;;;;4869224;29;19931;-88
2023/08/03 01:42:37;;;;;;;;;;;;;;;;;;4874961;29;19935;-87
2023/08/03 01:45:03;;;;;;;;;;;;;;;;;;4900956;29;19930;-88
2023/08/03 01:47:29;;;;;;;;;;;;;;;;;;4869943;29;19969;-88
2023/08/03 01:49:55;;;;;;;;;;;;;;;;;;4873012;29;19931;-87
2023/08/03 01:52:21;;;;;;;;;;;;;;;;;;4884922;29;19938;-88
2023/08/03 01:54:47;;;;;;;;;;;;;;;;;;4870892;29;19982;-87
2023/08/03 01:57:14;;;;;;;;;;;;;;;;;;4891326;29;20021;-87
2023/08/03 01:59:40;;;;;;;;;;;;;;;;;;4889560;29;20386;-87
2023/08/03 02:02:07;;;;;;;;;;;;;;;;;;4879129;29;20368;-87
2023/08/03 02:04:33;;;;;;;;;;;;;;;;;;4877494;29;19931;-87
2023/08/03 02:06:59;;;;;;;;;;;;;;;;;;4874901;29;19949;-87
2023/08/03 02:09:25;;;;;;;;;;;;;;;;;;4896786;29;19982;-87
2023/08/03 02:11:51;;;;;;;;;;;;;;;;;;4887959;29;20347;-88
2023/08/03 02:14:17;;;;;;;;;;;;;;;;;;4870441;29;19930;-87
2023/08/03 02:16:43;;;;;;;;;;;;;;;;;;4870504;29;19922;-87
2023/08/03 02:19:09;;;;;;;;;;;;;;;;;;4882573;29;20400;-87
2023/08/03 02:21:35;;;;;;;;;;;;;;;;;;4890923;29;19923;-87
2023/08/03 02:24:01;;;;;;;;;;;;;;;;;;4885713;29;20022;-87
2023/08/03 02:26:27;;;;;;;;;;;;;;;;;;4869204;29;19990;-87
2023/08/03 02:28:53;;;;;;;;;;;;;;;;;;4873621;29;19990;-87
2023/08/03 02:31:19;;;;;;;;;;;;;;;;;;4878762;29;19927;-87
2023/08/03 02:33:45;;;;;;;;;;;;;;;;;;4873525;29;20948;-87
2023/08/03 02:36:11;;;;;;;;;;;;;;;;;;4901305;29;19954;-87
2023/08/03 02:38:37;;;;;;;;;;;;;;;;;;4876270;29;20394;-87
2023/08/03 02:41:03;;;;;;;;;;;;;;;;;;4872190;29;19931;-88
2023/08/03 02:43:29;;;;;;;;;;;;;;;;;;4897628;29;19927;-87
2023/08/03 02:45:55;;;;;;;;;;;;;;;;;;4885031;29;19927;-87
2023/08/03 02:48:21;;;;;;;;;;;;;;;;;;4868590;29;20540;-88
2023/08/03 02:50:47;;;;;;;;;;;;;;;;;;4870833;29;19942;-88
2023/08/03 02:53:13;;;;;;;;;;;;;;;;;;4894098;29;20386;-87
2023/08/03 02:55:39;;;;;;;;;;;;;;;;;;4900709;29;19970;-87
2023/08/03 02:58:05;;;;;;;;;;;;;;;;;;4887064;29;20776;-87
2023/08/03 03:00:31;;;;;;;;;;;;;;;;;;4873387;29;19987;-87
2023/08/03 03:02:57;;;;;;;;;;;;;;;;;;4906555;29;19931;-87
2023/08/03 03:05:23;;;;;;;;;;;;;;;;;;4899182;29;19983;-87
2023/08/03 03:07:49;;;;;;;;;;;;;;;;;;4885618;29;19931;-87
2023/08/03 03:10:15;;;;;;;;;;;;;;;;;;4867832;29;19946;-87
2023/08/03 03:12:41;;;;;;;;;;;;;;;;;;4886660;29;19927;-87
2023/08/03 03:15:07;;;;;;;;;;;;;;;;;;4886802;29;19930;-87
2023/08/03 03:17:33;;;;;;;;;;;;;;;;;;4883893;29;20034;-88
2023/08/03 03:19:59;;;;;;;;;;;;;;;;;;4869759;29;20056;-87
2023/08/03 03:22:25;;;;;;;;;;;;;;;;;;4869134;28;20586;-88
2023/08/03 03:24:51;;;;;;;;;;;;;;;;;;4885474;29;19931;-88
2023/08/03 03:27:17;;;;;;;;;;;;;;;;;;4882287;29;19938;-87
2023/08/03 03:29:43;;;;;;;;;;;;;;;;;;4870425;29;19966;-88
2023/08/03 03:32:09;;;;;;;;;;;;;;;;;;4882986;29;19927;-87
2023/08/03 03:34:35;;;;;;;;;;;;;;;;;;4874027;29;19966;-87
2023/08/03 03:37:01;;;;;;;;;;;;;;;;;;4872061;29;19927;-87
2023/08/03 03:39:27;;;;;;;;;;;;;;;;;;4881181;29;20525;-87
2023/08/03 03:41:53;;;;;;;;;;;;;;;;;;4888902;29;19934;-87
2023/08/03 03:44:19;;;;;;;;;;;;;;;;;;4867694;29;20472;-87
2023/08/03 03:46:45;;;;;;;;;;;;;;;;;;4887365;29;19927;-87
2023/08/03 03:49:11;;;;;;;;;;;;;;;;;;4879778;29;20009;-87
2023/08/03 03:51:37;;;;;;;;;;;;;;;;;;4900228;29;19924;-88
2023/08/03 03:54:02;;;;;;;;;;;;;;;;;;4885578;28;19931;-87
2023/08/03 03:56:28;;;;;;;;;;;;;;;;;;4866994;29;20288;-88
2023/08/03 03:58:54;;;;;;;;;;;;;;;;;;4886432;29;19931;-87
2023/08/03 04:01:20;;;;;;;;;;;;;;;;;;4897134;29;19930;-87
2023/08/03 04:03:46;;;;;;;;;;;;;;;;;;4871998;29;20065;-88
2023/08/03 04:06:12;;;;;;;;;;;;;;;;;;4871617;29;19935;-88
2023/08/03 04:08:38;;;;;;;;;;;;;;;;;;4889687;29;19966;-88
2023/08/03 04:11:04;;;;;;;;;;;;;;;;;;4874944;29;20069;-88
2023/08/03 04:13:30;;;;;;;;;;;;;;;;;;4895690;29;20438;-88
2023/08/03 04:15:56;;;;;;;;;;;;;;;;;;4887350;29;19931;-87
2023/08/03 04:18:22;;;;;;;;;;;;;;;;;;4885723;29;19931;-88
2023/08/03 04:20:48;;;;;;;;;;;;;;;;;;4888205;29;19931;-88
2023/08/03 04:23:14;;;;;;;;;;;;;;;;;;4898745;29;19935;-88
2023/08/03 04:25:40;;;;;;;;;;;;;;;;;;4873489;29;19935;-88
2023/08/03 04:28:09;;;;;;;;;;;;;;;;;;4893572;29;19931;-88
2023/08/03 04:30:35;;;;;;;;;;;;;;;;;;4892236;29;19978;-88
2023/08/03 04:33:01;;;;;;;;;;;;;;;;;;4893404;29;19929;-88
2023/08/03 04:35:27;;;;;;;;;;;;;;;;;;4899788;29;20676;-87
2023/08/03 04:37:53;;;;;;;;;;;;;;;;;;4907519;29;19927;-88
2023/08/03 04:40:19;;;;;;;;;;;;;;;;;;4888964;29;20366;-87
2023/08/03 04:42:45;;;;;;;;;;;;;;;;;;4894935;29;19953;-87
2023/08/03 04:45:11;;;;;;;;;;;;;;;;;;4890548;29;19930;-88
2023/08/03 04:47:38;;;;;;;;;;;;;;;;;;4908638;29;20373;-87
2023/08/03 04:50:04;;;;;;;;;;;;;;;;;;4891976;29;19975;-87
2023/08/03 04:52:30;;;;;;;;;;;;;;;;;;4892273;28;19930;-88
2023/08/03 04:54:56;;;;;;;;;;;;;;;;;;4887140;29;19931;-88
2023/08/03 04:57:22;;;;;;;;;;;;;;;;;;4867381;29;20098;-88
2023/08/03 04:59:48;;;;;;;;;;;;;;;;;;4902574;29;19931;-87
2023/08/03 05:02:14;;;;;;;;;;;;;;;;;;4900435;29;19985;-88
2023/08/03 05:04:39;;;;;;;;;;;;;;;;;;4874720;29;20353;-87
2023/08/03 05:07:05;;;;;;;;;;;;;;;;;;4889411;29;19935;-87
2023/08/03 05:09:31;;;;;;;;;;;;;;;;;;4884280;29;19966;-88
2023/08/03 05:11:57;;;;;;;;;;;;;;;;;;4893551;29;19931;-88
2023/08/03 05:14:23;;;;;;;;;;;;;;;;;;4871166;29;19930;-88
2023/08/03 05:16:49;;;;;;;;;;;;;;;;;;4889008;29;19930;-88
2023/08/03 05:19:15;;;;;;;;;;;;;;;;;;4882904;28;19993;-87
2023/08/03 05:21:41;;;;;;;;;;;;;;;;;;4888041;29;19938;-88
2023/08/03 05:24:08;;;;;;;;;;;;;;;;;;4883161;29;20022;-88
2023/08/03 05:26:34;;;;;;;;;;;;;;;;;;4889245;29;20417;-88
2023/08/03 05:29:00;;;;;;;;;;;;;;;;;;4889155;29;20515;-88
2023/08/03 05:31:26;;;;;;;;;;;;;;;;;;4871366;29;19927;-88
2023/08/03 05:33:52;;;;;;;;;;;;;;;;;;4887901;29;19934;-87
2023/08/03 05:36:18;;;;;;;;;;;;;;;;;;4882458;29;20290;-87
2023/08/03 05:38:44;;;;;;;;;;;;;;;;;;4873020;29;19931;-88
2023/08/03 05:41:10;;;;;;;;;;;;;;;;;;4873065;29;19927;-87
2023/08/03 05:43:36;;;;;;;;;;;;;;;;;;4881893;29;19930;-87
2023/08/03 05:46:02;;;;;;;;;;;;;;;;;;4884404;29;20383;-87
2023/08/03 05:48:27;;;;;;;;;;;;;;;;;;4881382;29;21843;-87
2023/08/03 05:50:57;;;;;;;;;;;;;;;;;;4897614;29;20009;-87
2023/08/03 05:53:23;;;;;;;;;;;;;;;;;;4897032;29;20021;-87
2023/08/03 05:55:49;;;;;;;;;;;;;;;;;;4902623;29;20021;-87
2023/08/03 05:58:15;;;;;;;;;;;;;;;;;;4896833;29;19927;-87
2023/08/03 06:00:41;;;;;;;;;;;;;;;;;;4886606;29;20445;-87
2023/08/03 06:03:07;;;;;;;;;;;;;;;;;;4882582;29;20014;-88
2023/08/03 06:05:34;;;;;;;;;;;;;;;;;;4893070;29;20017;-88
2023/08/03 06:08:00;;;;;;;;;;;;;;;;;;4882473;29;19935;-87
2023/08/03 06:10:26;;;;;;;;;;;;;;;;;;4882488;29;19986;-87
2023/08/03 06:12:52;;;;;;;;;;;;;;;;;;4885539;29;19926;-87
2023/08/03 06:15:18;;;;;;;;;;;;;;;;;;4883030;29;19983;-87
2023/08/03 06:17:44;;;;;;;;;;;;;;;;;;4888168;29;19934;-87
2023/08/03 06:20:10;;;;;;;;;;;;;;;;;;4881073;29;20298;-88
2023/08/03 06:22:36;;;;;;;;;;;;;;;;;;4885756;29;20019;-87
2023/08/03 06:25:02;;;;;;;;;;;;;;;;;;4885374;29;19933;-87
2023/08/03 06:27:28;;;;;;;;;;;;;;;;;;4882498;28;19931;-87
2023/08/03 06:29:54;;;;;;;;;;;;;;;;;;4897661;29;20374;-88
2023/08/03 06:32:20;;;;;;;;;;;;;;;;;;4881091;29;20338;-87
2023/08/03 06:34:46;;;;;;;;;;;;;;;;;;4884659;29;20360;-87
2023/08/03 06:37:12;;;;;;;;;;;;;;;;;;4881457;29;19922;-87
2023/08/03 06:39:38;;;;;;;;;;;;;;;;;;4884903;29;20063;-87
2023/08/03 06:42:04;;;;;;;;;;;;;;;;;;4899404;29;19923;-87
2023/08/03 06:44:30;;;;;;;;;;;;;;;;;;4897706;29;19989;-87
2023/08/03 06:46:56;;;;;;;;;;;;;;;;;;4899809;29;20381;-87
2023/08/03 06:49:22;;;;;;;;;;;;;;;;;;4896567;29;19957;-87
2023/08/03 06:51:48;;;;;;;;;;;;;;;;;;4882799;29;19931;-87
2023/08/03 06:54:14;;;;;;;;;;;;;;;;;;4892702;29;20396;-87
2023/08/03 06:56:40;;;;;;;;;;;;;;;;;;4881388;29;19950;-87
2023/08/03 06:59:06;;;;;;;;;;;;;;;;;;4896275;29;20374;-87
2023/08/03 07:01:33;;;;;;;;;;;;;;;;;;4898631;29;19927;-87
2023/08/03 07:03:59;;;;;;;;;;;;;;;;;;4885271;28;19957;-87
2023/08/03 07:06:25;;;;;;;;;;;;;;;;;;4894920;29;20084;-87
2023/08/03 07:08:51;;;;;;;;;;;;;;;;;;4900720;29;19927;-87
2023/08/03 07:11:17;;;;;;;;;;;;;;;;;;4912455;29;19927;-87
2023/08/03 07:13:43;;;;;;;;;;;;;;;;;;4898517;29;19927;-87
2023/08/03 07:16:09;;;;;;;;;;;;;;;;;;4914403;29;19927;-88
2023/08/03 07:18:35;;;;;;;;;;;;;;;;;;4899018;28;19933;-87
2023/08/03 07:21:00;;;;;;;;;;;;;;;;;;4918093;29;19926;-87
2023/08/03 07:23:26;;;;;;;;;;;;;;;;;;4889631;29;20781;-87
2023/08/03 07:25:52;;;;;;;;;;;;;;;;;;4886334;29;19962;-87
2023/08/03 07:28:19;;;;;;;;;;;;;;;;;;4895051;29;20006;-87
2023/08/03 07:30:45;;;;;;;;;;;;;;;;;;4882849;29;20378;-87
2023/08/03 07:33:11;;;;;;;;;;;;;;;;;;4888753;29;19942;-87
2023/08/03 07:35:38;;;;;;;;;;;;;;;;;;4908211;29;20323;-87
2023/08/03 07:38:04;;;;;;;;;;;;;;;;;;4882875;29;20017;-87
2023/08/03 07:40:30;;;;;;;;;;;;;;;;;;4889552;29;19927;-87
2023/08/03 07:42:56;;;;;;;;;;;;;;;;;;4893861;29;19938;-87
2023/08/03 07:45:22;;;;;;;;;;;;;;;;;;4884305;29;19930;-87
2023/08/03 07:47:48;;;;;;;;;;;;;;;;;;4883122;29;19927;-87
2023/08/03 07:50:13;;;;;;;;;;;;;;;;;;4894108;29;20369;-87
2023/08/03 07:52:39;;;;;;;;;;;;;;;;;;4904622;29;20290;-86
2023/08/03 07:55:05;;;;;;;;;;;;;;;;;;4908783;29;19930;-87
2023/08/03 07:57:33;;;;;;;;;;;;;;;;;;4878518;29;19927;-87
2023/08/03 07:59:59;;;;;;;;;;;;;;;;;;4885948;29;19934;-87
2023/08/03 08:02:25;;;;;;;;;;;;;;;;;;4881260;29;19923;-87
2023/08/03 08:04:51;;;;;;;;;;;;;;;;;;4900553;29;20009;-87
2023/08/03 08:07:17;;;;;;;;;;;;;;;;;;4876610;29;19941;-87
2023/08/03 08:09:43;;;;;;;;;;;;;;;;;;4897587;29;19973;-87
2023/08/03 08:12:09;;;;;;;;;;;;;;;;;;4918165;29;20072;-87
2023/08/03 08:14:35;;;;;;;;;;;;;;;;;;4904232;29;20429;-87
2023/08/03 08:17:02;;;;;;;;;;;;;;;;;;4897628;29;19927;-87
2023/08/03 08:19:28;;;;;;;;;;;;;;;;;;4910594;29;20519;-88
2023/08/03 08:21:54;;;;;;;;;;;;;;;;;;4915655;29;19970;-87
2023/08/03 08:24:20;;;;;;;;;;;;;;;;;;4909939;29;20078;-87
2023/08/03 08:26:46;;;;;;;;;;;;;;;;;;4889704;29;20012;-87
2023/08/03 08:29:12;;;;;;;;;;;;;;;;;;4896794;29;19966;-87
2023/08/03 08:31:38;;;;;;;;;;;;;;;;;;4917283;29;20009;-86
2023/08/03 08:34:04;;;;;;;;;;;;;;;;;;4921349;29;20067;-87
2023/08/03 08:36:30;;;;;;;;;;;;;;;;;;4915698;29;19930;-86
2023/08/03 08:38:56;;;;;;;;;;;;;;;;;;4918483;29;19938;-86
2023/08/03 08:41:21;;;;;;;;;;;;;;;;;;4895523;29;19981;-86
2023/08/03 08:43:47;;;;;;;;;;;;;;;;;;4893456;29;19926;-86
2023/08/03 08:46:13;;;;;;;;;;;;;;;;;;4883463;29;20530;-87
2023/08/03 08:48:39;;;;;;;;;;;;;;;;;;4883788;29;19934;-86
2023/08/03 08:51:05;;;;;;;;;;;;;;;;;;4880599;29;20348;-86
2023/08/03 08:53:31;;;;;;;;;;;;;;;;;;4882723;29;19931;-86
2023/08/03 08:55:58;;;;;;;;;;;;;;;;;;4899053;29;20587;-87
2023/08/03 08:58:24;;;;;;;;;;;;;;;;;;4894597;29;19949;-87
2023/08/03 09:00:51;;;;;;;;;;;;;;;;;;4901562;29;20284;-86
2023/08/03 09:03:17;;;;;;;;;;;;;;;;;;4920617;29;19927;-86
2023/08/03 09:05:43;;;;;;;;;;;;;;;;;;4894594;29;20030;-86
2023/08/03 09:08:09;;;;;;;;;;;;;;;;;;4891852;29;19926;-87
2023/08/03 09:10:34;;;;;;;;;;;;;;;;;;4899923;29;19937;-86
2023/08/03 09:13:00;;;;;;;;;;;;;;;;;;4897823;29;19933;-86
2023/08/03 09:15:26;;;;;;;;;;;;;;;;;;4896989;29;20366;-86
2023/08/03 09:17:52;;;;;;;;;;;;;;;;;;4898505;29;20378;-87
2023/08/03 09:20:18;;;;;;;;;;;;;;;;;;4910857;29;20014;-87
2023/08/03 09:22:44;;;;;;;;;;;;;;;;;;4882092;29;19981;-86
2023/08/03 09:25:11;;;;;;;;;;;;;;;;;;4893430;29;19935;-87
2023/08/03 09:27:39;;;;;;;;;;;;;;;;;;4901690;29;19926;-96
2023/08/03 09:30:05;;;;;;;;;;;;;;;;;;4900229;29;19927;-96
2023/08/03 09:32:31;;;;;;;;;;;;;;;;;;4888945;29;19926;-95
2023/08/03 09:35:11;;;;;;;;;;;;;;;;;;4885509;29;19949;-96
2023/08/03 09:37:38;;;;;;;;;;;;;;;;;;4900409;29;19927;-94
2023/08/03 09:40:07;;;;;;;;;;;;;;;;;;4883873;29;20001;-95
2023/08/03 09:42:34;;;;;;;;;;;;;;;;;;4887244;29;20021;-95
2023/08/03 09:45:01;;;;;;;;;;;;;;;;;;4897428;29;20013;-95
2023/08/03 09:47:27;;;;;;;;;;;;;;;;;;4890372;29;20875;-95
2023/08/03 09:49:56;;;;;;;;;;;;;;;;;;4882322;29;19927;-95
2023/08/03 09:52:30;;;;;;;;;;;;;;;;;;4895730;29;19930;-95
2023/08/03 09:54:56;;;;;;;;;;;;;;;;;;4890953;29;19933;-96
2023/08/03 09:57:22;;;;;;;;;;;;;;;;;;4889538;29;19942;-96
2023/08/03 09:59:48;;;;;;;;;;;;;;;;;;4916219;29;19923;-94
2023/08/03 10:02:14;;;;;;;;;;;;;;;;;;4903483;29;20018;-93
2023/08/03 10:04:40;;;;;;;;;;;;;;;;;;4892271;29;20009;-94
2023/08/03 10:07:06;;;;;;;;;;;;;;;;;;4906978;29;19960;-93
2023/08/03 10:09:34;;;;;;;;;;;;;;;;;;4883850;29;19931;-93
2023/08/03 10:12:00;;;;;;;;;;;;;;;;;;4924890;29;19926;-93
2023/08/03 10:14:26;;;;;;;;;;;;;;;;;;4894640;29;19927;-94
2023/08/03 10:16:52;;;;;;;;;;;;;;;;;;4885293;29;20100;-93
2023/08/03 10:19:18;;;;;;;;;;;;;;;;;;4882643;29;19978;-94
2023/08/03 10:21:44;;;;;;;;;;;;;;;;;;4904455;29;19934;-94
2023/08/03 10:24:09;;;;;;;;;;;;;;;;;;4881508;29;19977;-96
2023/08/03 10:26:36;;;;;;;;;;;;;;;;;;4900042;29;19927;-93
2023/08/03 10:29:03;;;;;;;;;;;;;;;;;;4893393;29;20029;-92
2023/08/03 10:31:29;;;;;;;;;;;;;;;;;;4910244;29;22208;-92
2023/08/03 10:33:55;;;;;;;;;;;;;;;;;;4900181;29;19927;-94
2023/08/03 10:36:21;;;;;;;;;;;;;;;;;;4894676;29;19927;-94
2023/08/03 10:38:47;;;;;;;;;;;;;;;;;;4905414;29;19969;-94
2023/08/03 10:41:13;;;;;;;;;;;;;;;;;;4881827;29;19973;-95
2023/08/03 10:43:39;;;;;;;;;;;;;;;;;;4905565;29;19926;-94
2023/08/03 10:46:05;;;;;;;;;;;;;;;;;;4888480;29;20322;-94
2023/08/03 10:48:34;;;;;;;;;;;;;;;;;;4892272;29;19989;-91
2023/08/03 10:51:00;;;;;;;;;;;;;;;;;;4885733;29;19997;-94
2023/08/03 10:53:26;;;;;;;;;;;;;;;;;;4893779;29;19937;-93
2023/08/03 10:55:52;;;;;;;;;;;;;;;;;;4897642;29;19984;-90
2023/08/03 10:58:18;;;;;;;;;;;;;;;;;;4903152;29;20363;-90
2023/08/03 11:00:44;;;;;;;;;;;;;;;;;;4897562;29;21301;-90
2023/08/03 11:03:10;;;;;;;;;;;;;;;;;;4878159;29;20562;-89
2023/08/03 11:05:36;;;;;;;;;;;;;;;;;;4882391;29;20430;-90
2023/08/03 11:08:02;;;;;;;;;;;;;;;;;;4893431;29;20033;-93
2023/08/03 11:10:28;;;;;;;;;;;;;;;;;;4880476;29;19931;-90
2023/08/03 11:12:55;;;;;;;;;;;;;;;;;;4890349;29;19923;-94
2023/08/03 11:15:21;;;;;;;;;;;;;;;;;;4872622;29;21047;-94
2023/08/03 11:17:46;;;;;;;;;;;;;;;;;;4889535;29;19931;-93
2023/08/03 11:20:14;;;;;;;;;;;;;;;;;;4869243;29;19931;-93
2023/08/03 11:22:40;;;;;;;;;;;;;;;;;;4910149;29;19927;-92
2023/08/03 11:25:07;;;;;;;;;;;;;;;;;;4892935;29;20301;-93
2023/08/03 11:27:33;;;;;;;;;;;;;;;;;;4903237;29;20354;-91
2023/08/03 11:30:00;;;;;;;;;;;;;;;;;;4904328;29;20282;-92
2023/08/03 11:32:26;;;;;;;;;;;;;;;;;;4903904;29;19931;-93
2023/08/03 11:34:52;;;;;;;;;;;;;;;;;;4890262;29;19934;-93
2023/08/03 11:37:18;;;;;;;;;;;;;;;;;;4883511;29;19938;-92
2023/08/03 11:39:44;;;;;;;;;;;;;;;;;;4877873;29;19934;-93
2023/08/03 11:42:10;;;;;;;;;;;;;;;;;;4871595;29;19931;-92
2023/08/03 11:44:36;;;;;;;;;;;;;;;;;;4871968;29;19931;-92
2023/08/03 11:47:03;;;;;;;;;;;;;;;;;;4870996;29;19938;-92
2023/08/03 11:49:29;;;;;;;;;;;;;;;;;;4872384;29;20027;-93
2023/08/03 11:51:59;;;;;;;;;;;;;;;;;;4885227;29;19946;-90
2023/08/03 11:54:25;;;;;;;;;;;;;;;;;;4874124;29;19978;-91
2023/08/03 11:56:51;;;;;;;;;;;;;;;;;;4885700;29;19935;-91
2023/08/03 11:59:17;;;;;;;;;;;;;;;;;;4884195;29;19931;-90
2023/08/03 12:01:44;;;;;;;;;;;;;;;;;;4874535;29;20378;-90
2023/08/03 12:04:10;;;;;;;;;;;;;;;;;;4867889;29;19985;-90
2023/08/03 12:06:36;;;;;;;;;;;;;;;;;;4888208;29;19927;-91
2023/08/03 12:09:02;;;;;;;;;;;;;;;;;;4879711;29;19938;-91
2023/08/03 12:11:28;;;;;;;;;;;;;;;;;;4880624;29;21181;-92
2023/08/03 12:13:54;;;;;;;;;;;;;;;;;;4879859;29;19933;-92
2023/08/03 12:16:20;;;;;;;;;;;;;;;;;;4885763;29;20609;-93
2023/08/03 12:18:46;;;;;;;;;;;;;;;;;;4894301;29;19927;-92
2023/08/03 12:21:12;;;;;;;;;;;;;;;;;;4891500;29;19927;-92
2023/08/03 12:23:38;;;;;;;;;;;;;;;;;;4884021;29;19942;-92
2023/08/03 12:26:04;;;;;;;;;;;;;;;;;;4898844;29;20448;-91
2023/08/03 12:28:30;;;;;;;;;;;;;;;;;;4898129;29;19942;-92
2023/08/03 12:30:56;;;;;;;;;;;;;;;;;;4911697;29;19927;-91
2023/08/03 12:33:21;;;;;;;;;;;;;;;;;;4901643;29;19962;-92
2023/08/03 12:35:47;;;;;;;;;;;;;;;;;;4892606;29;19927;-92
2023/08/03 12:38:13;;;;;;;;;;;;;;;;;;4901126;29;20834;-92
2023/08/03 12:40:39;;;;;;;;;;;;;;;;;;4899808;29;20014;-93
2023/08/03 12:43:05;;;;;;;;;;;;;;;;;;4885425;29;19927;-92
2023/08/03 12:45:31;;;;;;;;;;;;;;;;;;4875676;29;19935;-92
2023/08/03 12:47:57;;;;;;;;;;;;;;;;;;4866742;29;19930;-92
2023/08/03 12:50:23;;;;;;;;;;;;;;;;;;4869903;29;19929;-92
2023/08/03 12:52:49;;;;;;;;;;;;;;;;;;4906521;29;19926;-93
2023/08/03 12:55:15;;;;;;;;;;;;;;;;;;4891762;29;19927;-91
2023/08/03 13:00:45;;;;;;;;;;;;;;;;;;4832091;29;20363;-92
2023/08/03 13:03:11;;;;;;;;;;;;;;;;;;4887671;29;20447;-93
2023/08/03 13:05:37;;;;;;;;;;;;;;;;;;4904552;29;19931;-92
2023/08/03 13:08:03;;;;;;;;;;;;;;;;;;4909465;29;19930;-92
2023/08/03 13:10:29;;;;;;;;;;;;;;;;;;4899845;29;20024;-91
2023/08/03 13:12:55;;;;;;;;;;;;;;;;;;4891253;29;19927;-92
2023/08/03 13:15:21;;;;;;;;;;;;;;;;;;4866331;29;19926;-91
2023/08/03 13:17:47;;;;;;;;;;;;;;;;;;4904042;29;20354;-90
2023/08/03 13:20:13;;;;;;;;;;;;;;;;;;4872442;29;19943;-92
2023/08/03 13:22:39;;;;;;;;;;;;;;;;;;4896015;29;20378;-91
2023/08/03 13:25:05;;;;;;;;;;;;;;;;;;4901604;29;20013;-93
2023/08/03 13:27:31;;;;;;;;;;;;;;;;;;4886133;29;19954;-92
2023/08/03 13:29:57;;;;;;;;;;;;;;;;;;4874214;29;20383;-91
2023/08/03 13:32:25;;;;;;;;;;;;;;;;;;4889420;29;19937;-92
2023/08/03 13:34:51;;;;;;;;;;;;;;;;;;4892452;29;19994;-91
2023/08/03 13:37:17;;;;;;;;;;;;;;;;;;4887908;29;19938;-92
2023/08/03 13:39:43;;;;;;;;;;;;;;;;;;4904418;29;19986;-91
2023/08/03 13:42:09;;;;;;;;;;;;;;;;;;4885064;29;20402;-91
2023/08/03 13:44:35;;;;;;;;;;;;;;;;;;4874869;29;20368;-91
2023/08/03 13:47:03;;;;;;;;;;;;;;;;;;4872757;29;19931;-91
2023/08/03 13:49:28;;;;;;;;;;;;;;;;;;4887194;29;19986;-90
2023/08/03 13:51:54;;;;;;;;;;;;;;;;;;4902551;29;20012;-92
2023/08/03 13:54:20;;;;;;;;;;;;;;;;;;4872208;29;20039;-92
2023/08/03 13:56:47;;;;;;;;;;;;;;;;;;4884002;29;19927;-91
2023/08/03 13:59:12;;;;;;;;;;;;;;;;;;4878375;29;20409;-90
2023/08/03 14:01:38;;;;;;;;;;;;;;;;;;4880700;29;20093;-90
2023/08/03 14:04:05;;;;;;;;;;;;;;;;;;4893907;29;20476;-92
2023/08/03 14:06:31;;;;;;;;;;;;;;;;;;4888671;29;20362;-90
2023/08/03 14:08:57;;;;;;;;;;;;;;;;;;4873004;29;20085;-89
2023/08/03 14:11:23;;;;;;;;;;;;;;;;;;4885195;29;20378;-90
2023/08/03 14:13:49;;;;;;;;;;;;;;;;;;4888864;29;19930;-90
2023/08/03 14:16:17;;;;;;;;;;;;;;;;;;4880210;29;19923;-90
2023/08/03 14:18:43;;;;;;;;;;;;;;;;;;4876531;29;20389;-91
2023/08/03 14:21:09;;;;;;;;;;;;;;;;;;4888072;29;20298;-89
2023/08/03 14:23:35;;;;;;;;;;;;;;;;;;4874951;29;19931;-90
2023/08/03 14:26:01;;;;;;;;;;;;;;;;;;4889681;29;20459;-90
2023/08/03 14:28:27;;;;;;;;;;;;;;;;;;4871467;29;20566;-91
2023/08/03 14:30:53;;;;;;;;;;;;;;;;;;4887077;29;19938;-90
2023/08/03 14:33:20;;;;;;;;;;;;;;;;;;4873295;29;20500;-90
2023/08/03 14:35:46;;;;;;;;;;;;;;;;;;4872451;29;19984;-90
2023/08/03 14:38:11;;;;;;;;;;;;;;;;;;4889560;29;20029;-91
2023/08/03 14:40:37;;;;;;;;;;;;;;;;;;4906106;29;19926;-86
2023/08/03 14:43:03;;;;;;;;;;;;;;;;;;4888680;29;19926;-87
2023/08/03 14:45:29;;;;;;;;;;;;;;;;;;4883024;29;19985;-86
2023/08/03 14:47:55;;;;;;;;;;;;;;;;;;4879082;29;19927;-86
2023/08/03 14:50:21;;;;;;;;;;;;;;;;;;4867945;29;19927;-86
2023/08/03 14:52:47;;;;;;;;;;;;;;;;;;4879034;29;20362;-86
2023/08/03 14:55:13;;;;;;;;;;;;;;;;;;4889015;29;20017;-86
2023/08/03 14:57:39;;;;;;;;;;;;;;;;;;4886172;29;19938;-86
2023/08/03 15:00:05;;;;;;;;;;;;;;;;;;4892875;29;19978;-85
2023/08/03 15:02:33;;;;;;;;;;;;;;;;;;4873071;29;19939;-85
2023/08/03 15:04:59;;;;;;;;;;;;;;;;;;4877279;29;19934;-86
2023/08/03 15:07:25;;;;;;;;;;;;;;;;;;4883778;29;19940;-86
2023/08/03 15:09:51;;;;;;;;;;;;;;;;;;4889746;29;19927;-86
2023/08/03 15:12:17;;;;;;;;;;;;;;;;;;4886707;29;19931;-86
2023/08/03 15:14:43;;;;;;;;;;;;;;;;;;4898924;29;19981;-86
2023/08/03 15:17:09;;;;;;;;;;;;;;;;;;4869263;29;20023;-86
2023/08/03 15:19:35;;;;;;;;;;;;;;;;;;4883203;29;20033;-86
2023/08/03 15:22:02;;;;;;;;;;;;;;;;;;4904535;29;20372;-86
2023/08/03 15:24:28;;;;;;;;;;;;;;;;;;4871063;29;19943;-88
2023/08/03 15:26:54;;;;;;;;;;;;;;;;;;4873976;29;19935;-88
2023/08/03 15:29:20;;;;;;;;;;;;;;;;;;4869610;29;20001;-87
2023/08/03 15:31:46;;;;;;;;;;;;;;;;;;4873775;29;19926;-86
2023/08/03 15:34:12;;;;;;;;;;;;;;;;;;4870940;29;19930;-87
2023/08/03 15:36:39;;;;;;;;;;;;;;;;;;4889709;29;19927;-87
2023/08/03 15:39:05;;;;;;;;;;;;;;;;;;4882529;29;19938;-88
2023/08/03 15:41:32;;;;;;;;;;;;;;;;;;4885965;29;20386;-86
2023/08/03 15:43:58;;;;;;;;;;;;;;;;;;4882705;29;20034;-86
2023/08/03 15:46:24;;;;;;;;;;;;;;;;;;4870224;29;20349;-87
2023/08/03 15:48:50;;;;;;;;;;;;;;;;;;4887051;29;19931;-86
2023/08/03 15:51:16;;;;;;;;;;;;;;;;;;4881388;29;22991;-87
2023/08/03 15:53:41;;;;;;;;;;;;;;;;;;4869324;29;20265;-87
2023/08/03 15:56:07;;;;;;;;;;;;;;;;;;4870835;29;19931;-87
2023/08/03 15:58:33;;;;;;;;;;;;;;;;;;4881486;29;20066;-87
2023/08/03 16:00:59;;;;;;;;;;;;;;;;;;4890410;29;20065;-87
2023/08/03 16:03:25;;;;;;;;;;;;;;;;;;4869233;29;20632;-86
2023/08/03 16:05:51;;;;;;;;;;;;;;;;;;4874106;29;20168;-86
2023/08/03 16:08:17;;;;;;;;;;;;;;;;;;4866472;29;19938;-87
2023/08/03 16:10:43;;;;;;;;;;;;;;;;;;4895037;29;20013;-87
2023/08/03 16:13:09;;;;;;;;;;;;;;;;;;4887268;29;19931;-87
2023/08/03 16:15:35;;;;;;;;;;;;;;;;;;4902469;29;19934;-87
2023/08/03 16:18:01;;;;;;;;;;;;;;;;;;4894399;29;19923;-86
2023/08/03 16:20:27;;;;;;;;;;;;;;;;;;4874687;29;19933;-87
2023/08/03 16:22:56;;;;;;;;;;;;;;;;;;4893668;29;19927;-87
2023/08/03 16:25:22;;;;;;;;;;;;;;;;;;4874603;29;20360;-87
2023/08/03 16:27:48;;;;;;;;;;;;;;;;;;4890538;29;19930;-87
2023/08/03 16:30:14;;;;;;;;;;;;;;;;;;4886704;29;20449;-86
2023/08/03 16:32:40;;;;;;;;;;;;;;;;;;4878182;29;20022;-86
2023/08/03 16:35:06;;;;;;;;;;;;;;;;;;4877409;29;20247;-87
2023/08/03 16:37:32;;;;;;;;;;;;;;;;;;4893072;29;19931;-86
2023/08/03 16:39:58;;;;;;;;;;;;;;;;;;4875389;29;20433;-86